sensor_id;sensor_type;location;lat;lon;timestamp;temperature;humidity
23237;DHT22;11787;52.018;8.570;2023-03-23T00:01:15;11.90;99.90
23237;DHT22;11787;52.018;8.570;2023-03-23T00:03:51;11.90;99.90
23237;DHT22;11787;52.018;8.570;2023-03-23T00:06:18;11.90;99.90
23237;DHT22;11787;52.018;8.570;2023-03-23T00:08:46;11.90;99.90
23237;DHT22;11787;52.018;8.570;2023-03-23T00:11:20;11.90;99.90
23237;DHT22;11787;52.018;8.570;2023-03-23T00:13:47;11.90;99.90
23237;DHT22;11787;52.018;8.570;2023-03-23T00:16:22;11.80;99.90
23237;DHT22;11787;52.018;8.570;2023-03-23T00:18:57;11.70;99.90
23237;DHT22;11787;52.018;8.570;2023-03-23T00:21:29;11.70;99.90
23237;DHT22;11787;52.018;8.570;2023-03-23T00:24:03;11.60;99.90
23237;DHT22;11787;52.018;8.570;2023-03-23T00:26:30;11.60;99.90
23237;DHT22;11787;52.018;8.570;2023-03-23T00:29:00;11.60;99.90
23237;DHT22;11787;52.018;8.570;2023-03-23T00:31:26;11.60;99.90
23237;DHT22;11787;52.018;8.570;2023-03-23T00:33:57;11.60;99.90
23237;DHT22;11787;52.018;8.570;2023-03-23T00:36:24;11.60;99.90
23237;DHT22;11787;52.018;8.570;2023-03-23T00:38:49;11.60;99.90
23237;DHT22;11787;52.018;8.570;2023-03-23T00:41:15;11.60;99.90
23237;DHT22;11787;52.018;8.570;2023-03-23T00:43:41;11.50;99.90
23237;DHT22;11787;52.018;8.570;2023-03-23T00:46:06;11.50;99.90
23237;DHT22;11787;52.018;8.570;2023-03-23T00:48:36;11.50;99.90
23237;DHT22;11787;52.018;8.570;2023-03-23T00:51:06;11.50;99.90
23237;DHT22;11787;52.018;8.570;2023-03-23T00:53:40;11.40;99.90
23237;DHT22;11787;52.018;8.570;2023-03-23T00:56:07;11.40;99.90
23237;DHT22;11787;52.018;8.570;2023-03-23T00:58:33;11.40;99.90
23237;DHT22;11787;52.018;8.570;2023-03-23T01:00:58;11.30;99.90
23237;DHT22;11787;52.018;8.570;2023-03-23T01:03:24;11.40;99.90
23237;DHT22;11787;52.018;8.570;2023-03-23T01:05:52;11.40;99.90
23237;DHT22;11787;52.018;8.570;2023-03-23T01:08:18;11.40;99.90
23237;DHT22;11787;52.018;8.570;2023-03-23T01:10:45;11.40;99.90
23237;DHT22;11787;52.018;8.570;2023-03-23T01:13:11;11.40;99.90
23237;DHT22;11787;52.018;8.570;2023-03-23T01:15:38;11.40;99.90
23237;DHT22;11787;52.018;8.570;2023-03-23T01:18:03;11.40;99.90
23237;DHT22;11787;52.018;8.570;2023-03-23T01:20:29;11.40;99.90
23237;DHT22;11787;52.018;8.570;2023-03-23T01:23:00;11.40;99.90
23237;DHT22;11787;52.018;8.570;2023-03-23T01:25:31;11.30;99.90
23237;DHT22;11787;52.018;8.570;2023-03-23T01:27:57;11.40;99.90
23237;DHT22;11787;52.018;8.570;2023-03-23T01:30:24;11.40;99.90
23237;DHT22;11787;52.018;8.570;2023-03-23T01:32:50;11.50;99.90
23237;DHT22;11787;52.018;8.570;2023-03-23T01:35:15;11.50;99.90
23237;DHT22;11787;52.018;8.570;2023-03-23T01:37:41;11.50;99.90
23237;DHT22;11787;52.018;8.570;2023-03-23T01:40:08;11.50;99.90
23237;DHT22;11787;52.018;8.570;2023-03-23T01:42:35;11.60;99.90
23237;DHT22;11787;52.018;8.570;2023-03-23T01:47:49;11.60;99.90
23237;DHT22;11787;52.018;8.570;2023-03-23T01:50:19;11.60;99.90
23237;DHT22;11787;52.018;8.570;2023-03-23T01:52:49;11.60;99.90
23237;DHT22;11787;52.018;8.570;2023-03-23T01:55:15;11.60;99.90
23237;DHT22;11787;52.018;8.570;2023-03-23T01:57:41;11.60;99.90
23237;DHT22;11787;52.018;8.570;2023-03-23T02:00:08;11.60;99.90
23237;DHT22;11787;52.018;8.570;2023-03-23T02:02:42;11.60;99.90
23237;DHT22;11787;52.018;8.570;2023-03-23T02:05:17;11.60;99.90
23237;DHT22;11787;52.018;8.570;2023-03-23T02:07:45;11.50;99.90
23237;DHT22;11787;52.018;8.570;2023-03-23T02:10:11;11.60;99.90
23237;DHT22;11787;52.018;8.570;2023-03-23T02:12:37;11.60;99.90
23237;DHT22;11787;52.018;8.570;2023-03-23T02:15:03;11.50;99.90
23237;DHT22;11787;52.018;8.570;2023-03-23T02:17:50;11.60;99.90
23237;DHT22;11787;52.018;8.570;2023-03-23T02:21:04;11.60;99.90
23237;DHT22;11787;52.018;8.570;2023-03-23T02:28:58;11.60;99.90
23237;DHT22;11787;52.018;8.570;2023-03-23T02:31:52;11.60;99.90
23237;DHT22;11787;52.018;8.570;2023-03-23T02:34:31;11.60;99.90
23237;DHT22;11787;52.018;8.570;2023-03-23T02:37:03;11.60;99.90
23237;DHT22;11787;52.018;8.570;2023-03-23T02:39:39;11.60;99.90
23237;DHT22;11787;52.018;8.570;2023-03-23T02:42:08;11.60;99.90
23237;DHT22;11787;52.018;8.570;2023-03-23T02:44:38;11.60;99.90
23237;DHT22;11787;52.018;8.570;2023-03-23T02:47:08;11.50;99.90
23237;DHT22;11787;52.018;8.570;2023-03-23T02:49:37;11.60;99.90
23237;DHT22;11787;52.018;8.570;2023-03-23T02:52:09;11.60;99.90
23237;DHT22;11787;52.018;8.570;2023-03-23T02:54:38;11.50;99.90
23237;DHT22;11787;52.018;8.570;2023-03-23T02:57:05;11.50;99.90
23237;DHT22;11787;52.018;8.570;2023-03-23T02:59:32;11.40;99.90
23237;DHT22;11787;52.018;8.570;2023-03-23T03:01:59;11.40;99.90
23237;DHT22;11787;52.018;8.570;2023-03-23T03:04:28;11.40;99.90
23237;DHT22;11787;52.018;8.570;2023-03-23T03:07:42;11.40;99.90
23237;DHT22;11787;52.018;8.570;2023-03-23T03:10:02;11.40;99.90
23237;DHT22;11787;52.018;8.570;2023-03-23T03:12:41;11.40;99.90
23237;DHT22;11787;52.018;8.570;2023-03-23T03:15:26;11.40;99.90
23237;DHT22;11787;52.018;8.570;2023-03-23T03:18:01;11.40;99.90
23237;DHT22;11787;52.018;8.570;2023-03-23T03:20:29;11.40;99.90
23237;DHT22;11787;52.018;8.570;2023-03-23T03:22:57;11.40;99.90
23237;DHT22;11787;52.018;8.570;2023-03-23T03:25:25;11.40;99.90
23237;DHT22;11787;52.018;8.570;2023-03-23T03:27:53;11.30;99.90
23237;DHT22;11787;52.018;8.570;2023-03-23T03:30:21;11.30;99.90
23237;DHT22;11787;52.018;8.570;2023-03-23T03:32:51;11.30;99.90
23237;DHT22;11787;52.018;8.570;2023-03-23T03:35:19;11.30;99.90
23237;DHT22;11787;52.018;8.570;2023-03-23T03:37:46;11.30;99.90
23237;DHT22;11787;52.018;8.570;2023-03-23T03:40:15;11.30;99.90
23237;DHT22;11787;52.018;8.570;2023-03-23T03:42:43;11.30;99.90
23237;DHT22;11787;52.018;8.570;2023-03-23T03:45:12;11.30;99.90
23237;DHT22;11787;52.018;8.570;2023-03-23T03:47:38;11.30;99.90
23237;DHT22;11787;52.018;8.570;2023-03-23T03:50:04;11.30;99.90
23237;DHT22;11787;52.018;8.570;2023-03-23T03:52:31;11.30;99.90
23237;DHT22;11787;52.018;8.570;2023-03-23T03:54:57;11.30;99.90
23237;DHT22;11787;52.018;8.570;2023-03-23T03:57:23;11.30;99.90
23237;DHT22;11787;52.018;8.570;2023-03-23T03:59:49;11.30;99.90
23237;DHT22;11787;52.018;8.570;2023-03-23T04:02:15;11.30;99.90
23237;DHT22;11787;52.018;8.570;2023-03-23T04:04:48;11.30;99.90
23237;DHT22;11787;52.018;8.570;2023-03-23T04:07:15;11.30;99.90
23237;DHT22;11787;52.018;8.570;2023-03-23T04:09:42;11.30;99.90
23237;DHT22;11787;52.018;8.570;2023-03-23T04:12:09;11.30;99.90
23237;DHT22;11787;52.018;8.570;2023-03-23T04:14:34;11.30;99.90
23237;DHT22;11787;52.018;8.570;2023-03-23T04:17:00;11.30;99.90
23237;DHT22;11787;52.018;8.570;2023-03-23T04:19:26;11.30;99.90
23237;DHT22;11787;52.018;8.570;2023-03-23T04:21:54;11.30;99.90
23237;DHT22;11787;52.018;8.570;2023-03-23T04:24:21;11.30;99.90
23237;DHT22;11787;52.018;8.570;2023-03-23T04:26:49;11.30;99.90
23237;DHT22;11787;52.018;8.570;2023-03-23T04:29:17;11.30;99.90
23237;DHT22;11787;52.018;8.570;2023-03-23T04:31:43;11.30;99.90
23237;DHT22;11787;52.018;8.570;2023-03-23T04:34:11;11.30;99.90
23237;DHT22;11787;52.018;8.570;2023-03-23T04:36:39;11.30;99.90
23237;DHT22;11787;52.018;8.570;2023-03-23T04:39:04;11.30;99.90
23237;DHT22;11787;52.018;8.570;2023-03-23T04:41:35;11.30;99.90
23237;DHT22;11787;52.018;8.570;2023-03-23T04:44:01;11.30;99.90
23237;DHT22;11787;52.018;8.570;2023-03-23T04:46:28;11.30;99.90
23237;DHT22;11787;52.018;8.570;2023-03-23T04:48:55;11.30;99.90
23237;DHT22;11787;52.018;8.570;2023-03-23T04:51:24;11.30;99.90
23237;DHT22;11787;52.018;8.570;2023-03-23T04:53:51;11.30;99.90
23237;DHT22;11787;52.018;8.570;2023-03-23T04:56:17;11.40;99.90
23237;DHT22;11787;52.018;8.570;2023-03-23T04:58:44;11.30;99.90
23237;DHT22;11787;52.018;8.570;2023-03-23T05:01:10;11.40;99.90
23237;DHT22;11787;52.018;8.570;2023-03-23T05:03:39;11.40;99.90
23237;DHT22;11787;52.018;8.570;2023-03-23T05:06:06;11.40;99.90
23237;DHT22;11787;52.018;8.570;2023-03-23T05:08:32;11.40;99.90
23237;DHT22;11787;52.018;8.570;2023-03-23T05:10:59;11.40;99.90
23237;DHT22;11787;52.018;8.570;2023-03-23T05:13:27;11.40;99.90
23237;DHT22;11787;52.018;8.570;2023-03-23T05:15:53;11.40;99.90
23237;DHT22;11787;52.018;8.570;2023-03-23T05:18:19;11.40;99.90
23237;DHT22;11787;52.018;8.570;2023-03-23T05:20:45;11.40;99.90
23237;DHT22;11787;52.018;8.570;2023-03-23T05:23:12;11.50;99.90
23237;DHT22;11787;52.018;8.570;2023-03-23T05:25:39;11.50;99.90
23237;DHT22;11787;52.018;8.570;2023-03-23T05:28:10;11.50;99.90
23237;DHT22;11787;52.018;8.570;2023-03-23T05:30:38;11.50;99.90
23237;DHT22;11787;52.018;8.570;2023-03-23T05:33:05;11.40;99.90
23237;DHT22;11787;52.018;8.570;2023-03-23T05:35:31;11.50;99.90
23237;DHT22;11787;52.018;8.570;2023-03-23T05:37:56;11.50;99.90
23237;DHT22;11787;52.018;8.570;2023-03-23T05:40:22;11.50;99.90
23237;DHT22;11787;52.018;8.570;2023-03-23T05:42:51;11.40;99.90
23237;DHT22;11787;52.018;8.570;2023-03-23T05:45:17;11.40;99.90
23237;DHT22;11787;52.018;8.570;2023-03-23T05:47:43;11.50;99.90
23237;DHT22;11787;52.018;8.570;2023-03-23T05:50:09;11.50;99.90
23237;DHT22;11787;52.018;8.570;2023-03-23T05:52:36;11.50;99.90
23237;DHT22;11787;52.018;8.570;2023-03-23T05:55:02;11.50;99.90
23237;DHT22;11787;52.018;8.570;2023-03-23T05:57:29;11.50;99.90
23237;DHT22;11787;52.018;8.570;2023-03-23T05:59:55;11.50;99.90
23237;DHT22;11787;52.018;8.570;2023-03-23T06:02:23;11.50;99.90
23237;DHT22;11787;52.018;8.570;2023-03-23T06:04:49;11.50;99.90
23237;DHT22;11787;52.018;8.570;2023-03-23T06:07:15;11.50;99.90
23237;DHT22;11787;52.018;8.570;2023-03-23T06:09:41;11.50;99.90
23237;DHT22;11787;52.018;8.570;2023-03-23T06:12:08;11.50;99.90
23237;DHT22;11787;52.018;8.570;2023-03-23T06:14:35;11.50;99.90
23237;DHT22;11787;52.018;8.570;2023-03-23T06:17:00;11.60;99.90
23237;DHT22;11787;52.018;8.570;2023-03-23T06:19:26;11.60;99.90
23237;DHT22;11787;52.018;8.570;2023-03-23T06:21:53;11.60;99.90
23237;DHT22;11787;52.018;8.570;2023-03-23T06:24:19;11.70;99.90
23237;DHT22;11787;52.018;8.570;2023-03-23T06:26:45;11.70;99.90
23237;DHT22;11787;52.018;8.570;2023-03-23T06:29:10;11.60;99.90
23237;DHT22;11787;52.018;8.570;2023-03-23T06:31:43;11.70;99.90
23237;DHT22;11787;52.018;8.570;2023-03-23T06:34:09;11.60;99.90
23237;DHT22;11787;52.018;8.570;2023-03-23T06:36:35;11.60;99.90
23237;DHT22;11787;52.018;8.570;2023-03-23T06:39:02;11.60;99.90
23237;DHT22;11787;52.018;8.570;2023-03-23T06:41:30;11.70;99.90
23237;DHT22;11787;52.018;8.570;2023-03-23T06:43:56;11.70;99.90
23237;DHT22;11787;52.018;8.570;2023-03-23T06:46:21;11.70;99.90
23237;DHT22;11787;52.018;8.570;2023-03-23T06:48:47;11.80;99.90
23237;DHT22;11787;52.018;8.570;2023-03-23T06:51:15;11.80;99.90
23237;DHT22;11787;52.018;8.570;2023-03-23T06:53:41;11.80;99.90
23237;DHT22;11787;52.018;8.570;2023-03-23T06:56:07;11.90;99.90
23237;DHT22;11787;52.018;8.570;2023-03-23T06:58:32;11.90;99.90
23237;DHT22;11787;52.018;8.570;2023-03-23T07:00:58;11.90;99.90
23237;DHT22;11787;52.018;8.570;2023-03-23T07:03:24;11.90;99.90
23237;DHT22;11787;52.018;8.570;2023-03-23T07:05:51;11.90;99.90
23237;DHT22;11787;52.018;8.570;2023-03-23T07:08:17;11.90;99.90
23237;DHT22;11787;52.018;8.570;2023-03-23T07:10:42;12.00;99.90
23237;DHT22;11787;52.018;8.570;2023-03-23T07:13:09;12.00;99.90
23237;DHT22;11787;52.018;8.570;2023-03-23T07:15:35;12.10;99.90
23237;DHT22;11787;52.018;8.570;2023-03-23T07:18:02;12.10;99.90
23237;DHT22;11787;52.018;8.570;2023-03-23T07:20:28;12.10;99.90
23237;DHT22;11787;52.018;8.570;2023-03-23T07:22:54;12.20;99.90
23237;DHT22;11787;52.018;8.570;2023-03-23T07:25:19;12.20;99.90
23237;DHT22;11787;52.018;8.570;2023-03-23T07:27:46;12.10;99.90
23237;DHT22;11787;52.018;8.570;2023-03-23T07:30:12;12.20;99.90
23237;DHT22;11787;52.018;8.570;2023-03-23T07:32:39;12.20;99.90
23237;DHT22;11787;52.018;8.570;2023-03-23T07:35:05;12.40;99.90
23237;DHT22;11787;52.018;8.570;2023-03-23T07:37:31;12.40;99.90
23237;DHT22;11787;52.018;8.570;2023-03-23T07:39:57;12.50;99.90
23237;DHT22;11787;52.018;8.570;2023-03-23T07:42:23;12.50;99.90
23237;DHT22;11787;52.018;8.570;2023-03-23T07:44:49;12.50;99.90
23237;DHT22;11787;52.018;8.570;2023-03-23T07:47:14;12.50;99.90
23237;DHT22;11787;52.018;8.570;2023-03-23T07:49:40;12.50;99.90
23237;DHT22;11787;52.018;8.570;2023-03-23T07:52:06;12.60;99.90
23237;DHT22;11787;52.018;8.570;2023-03-23T07:54:31;12.60;99.90
23237;DHT22;11787;52.018;8.570;2023-03-23T07:56:57;12.70;99.90
23237;DHT22;11787;52.018;8.570;2023-03-23T07:59:23;12.60;99.90
23237;DHT22;11787;52.018;8.570;2023-03-23T08:01:48;12.60;99.90
23237;DHT22;11787;52.018;8.570;2023-03-23T08:04:14;12.60;99.90
23237;DHT22;11787;52.018;8.570;2023-03-23T08:06:40;12.50;99.90
23237;DHT22;11787;52.018;8.570;2023-03-23T08:09:07;12.50;99.90
23237;DHT22;11787;52.018;8.570;2023-03-23T08:11:34;12.50;99.90
23237;DHT22;11787;52.018;8.570;2023-03-23T08:14:00;12.50;99.90
23237;DHT22;11787;52.018;8.570;2023-03-23T08:16:26;12.50;99.90
23237;DHT22;11787;52.018;8.570;2023-03-23T08:18:52;12.50;99.90
23237;DHT22;11787;52.018;8.570;2023-03-23T08:21:18;12.60;99.90
23237;DHT22;11787;52.018;8.570;2023-03-23T08:23:44;12.60;99.90
23237;DHT22;11787;52.018;8.570;2023-03-23T08:26:10;12.60;99.90
23237;DHT22;11787;52.018;8.570;2023-03-23T08:28:37;12.70;99.90
23237;DHT22;11787;52.018;8.570;2023-03-23T08:31:07;12.60;99.90
23237;DHT22;11787;52.018;8.570;2023-03-23T08:33:33;12.70;99.90
23237;DHT22;11787;52.018;8.570;2023-03-23T08:36:00;12.70;99.90
23237;DHT22;11787;52.018;8.570;2023-03-23T08:38:26;12.70;99.90
23237;DHT22;11787;52.018;8.570;2023-03-23T08:41:00;12.70;99.90
23237;DHT22;11787;52.018;8.570;2023-03-23T08:43:27;12.70;99.90
23237;DHT22;11787;52.018;8.570;2023-03-23T08:45:53;12.70;99.90
23237;DHT22;11787;52.018;8.570;2023-03-23T08:48:19;12.80;99.90
23237;DHT22;11787;52.018;8.570;2023-03-23T08:50:45;12.80;99.90
23237;DHT22;11787;52.018;8.570;2023-03-23T08:53:10;12.80;99.90
23237;DHT22;11787;52.018;8.570;2023-03-23T08:55:36;12.80;99.90
23237;DHT22;11787;52.018;8.570;2023-03-23T08:58:02;12.80;99.90
23237;DHT22;11787;52.018;8.570;2023-03-23T09:00:30;12.80;99.90
23237;DHT22;11787;52.018;8.570;2023-03-23T09:02:56;12.80;99.90
23237;DHT22;11787;52.018;8.570;2023-03-23T09:05:24;12.80;99.90
23237;DHT22;11787;52.018;8.570;2023-03-23T09:07:52;12.80;99.90
23237;DHT22;11787;52.018;8.570;2023-03-23T09:10:19;12.80;99.90
23237;DHT22;11787;52.018;8.570;2023-03-23T09:12:46;12.80;99.90
23237;DHT22;11787;52.018;8.570;2023-03-23T09:15:14;12.90;99.90
23237;DHT22;11787;52.018;8.570;2023-03-23T09:17:48;12.90;99.90
23237;DHT22;11787;52.018;8.570;2023-03-23T09:20:17;13.00;99.90
23237;DHT22;11787;52.018;8.570;2023-03-23T09:22:45;13.10;99.90
23237;DHT22;11787;52.018;8.570;2023-03-23T09:25:14;13.20;99.90
23237;DHT22;11787;52.018;8.570;2023-03-23T09:27:41;13.20;99.90
23237;DHT22;11787;52.018;8.570;2023-03-23T09:30:09;13.30;99.90
23237;DHT22;11787;52.018;8.570;2023-03-23T09:32:36;13.40;99.90
23237;DHT22;11787;52.018;8.570;2023-03-23T09:35:04;13.40;99.90
23237;DHT22;11787;52.018;8.570;2023-03-23T09:37:30;13.50;99.90
23237;DHT22;11787;52.018;8.570;2023-03-23T09:39:56;13.50;99.90
23237;DHT22;11787;52.018;8.570;2023-03-23T09:45:29;13.50;99.90
23237;DHT22;11787;52.018;8.570;2023-03-23T09:50:42;13.50;99.90
23237;DHT22;11787;52.018;8.570;2023-03-23T09:53:13;13.50;99.90
23237;DHT22;11787;52.018;8.570;2023-03-23T09:55:40;13.50;99.90
23237;DHT22;11787;52.018;8.570;2023-03-23T09:58:16;13.50;99.90
23237;DHT22;11787;52.018;8.570;2023-03-23T10:00:55;13.50;99.90
23237;DHT22;11787;52.018;8.570;2023-03-23T10:03:27;13.50;99.90
23237;DHT22;11787;52.018;8.570;2023-03-23T10:05:54;13.50;99.90
23237;DHT22;11787;52.018;8.570;2023-03-23T10:08:25;13.50;99.90
23237;DHT22;11787;52.018;8.570;2023-03-23T10:14:16;13.60;99.90
23237;DHT22;11787;52.018;8.570;2023-03-23T10:19:52;13.80;99.90
23237;DHT22;11787;52.018;8.570;2023-03-23T10:22:29;13.90;99.90
23237;DHT22;11787;52.018;8.570;2023-03-23T10:28:11;14.10;99.90
23237;DHT22;11787;52.018;8.570;2023-03-23T10:30:40;14.30;99.90
23237;DHT22;11787;52.018;8.570;2023-03-23T10:36:00;14.40;99.90
23237;DHT22;11787;52.018;8.570;2023-03-23T10:39:17;14.40;99.90
23237;DHT22;11787;52.018;8.570;2023-03-23T10:41:22;14.40;99.90
23237;DHT22;11787;52.018;8.570;2023-03-23T10:43:48;14.40;99.90
23237;DHT22;11787;52.018;8.570;2023-03-23T10:46:44;14.40;99.90
23237;DHT22;11787;52.018;8.570;2023-03-23T10:49:18;14.30;99.90
23237;DHT22;11787;52.018;8.570;2023-03-23T10:51:49;14.20;99.90
23237;DHT22;11787;52.018;8.570;2023-03-23T10:54:32;14.30;99.90
23237;DHT22;11787;52.018;8.570;2023-03-23T10:56:59;14.30;99.90
23237;DHT22;11787;52.018;8.570;2023-03-23T10:59:30;14.20;99.90
23237;DHT22;11787;52.018;8.570;2023-03-23T11:01:58;14.10;99.90
23237;DHT22;11787;52.018;8.570;2023-03-23T11:04:25;13.70;99.90
23237;DHT22;11787;52.018;8.570;2023-03-23T11:06:53;13.20;99.90
23237;DHT22;11787;52.018;8.570;2023-03-23T11:09:21;12.60;99.90
23237;DHT22;11787;52.018;8.570;2023-03-23T11:11:58;12.10;99.90
23237;DHT22;11787;52.018;8.570;2023-03-23T11:14:29;11.70;99.90
23237;DHT22;11787;52.018;8.570;2023-03-23T11:16:58;11.40;99.90
23237;DHT22;11787;52.018;8.570;2023-03-23T11:19:35;11.30;99.90
23237;DHT22;11787;52.018;8.570;2023-03-23T11:24:36;11.20;99.90
23237;DHT22;11787;52.018;8.570;2023-03-23T11:27:06;11.10;99.90
23237;DHT22;11787;52.018;8.570;2023-03-23T11:29:35;11.10;99.90
23237;DHT22;11787;52.018;8.570;2023-03-23T11:32:05;11.10;99.90
23237;DHT22;11787;52.018;8.570;2023-03-23T11:34:41;11.00;99.90
23237;DHT22;11787;52.018;8.570;2023-03-23T11:37:19;11.10;99.90
23237;DHT22;11787;52.018;8.570;2023-03-23T11:40:16;11.10;99.90
23237;DHT22;11787;52.018;8.570;2023-03-23T11:45:37;11.10;99.90
23237;DHT22;11787;52.018;8.570;2023-03-23T11:58:42;11.10;99.90
23237;DHT22;11787;52.018;8.570;2023-03-23T12:07:04;11.00;99.90
23237;DHT22;11787;52.018;8.570;2023-03-23T12:10:02;11.00;99.90
23237;DHT22;11787;52.018;8.570;2023-03-23T12:23:05;10.90;99.90
23237;DHT22;11787;52.018;8.570;2023-03-23T12:33:38;11.00;99.90
23237;DHT22;11787;52.018;8.570;2023-03-23T12:36:18;11.00;99.90
23237;DHT22;11787;52.018;8.570;2023-03-23T12:41:18;10.90;99.90
23237;DHT22;11787;52.018;8.570;2023-03-23T12:44:02;10.90;99.90
23237;DHT22;11787;52.018;8.570;2023-03-23T12:49:22;10.90;99.90
23237;DHT22;11787;52.018;8.570;2023-03-23T12:52:14;11.00;99.90
23237;DHT22;11787;52.018;8.570;2023-03-23T13:00:48;11.10;99.90
23237;DHT22;11787;52.018;8.570;2023-03-23T13:02:59;11.10;99.90
23237;DHT22;11787;52.018;8.570;2023-03-23T13:23:58;11.00;99.90
23237;DHT22;11787;52.018;8.570;2023-03-23T13:26:25;11.10;99.90
23237;DHT22;11787;52.018;8.570;2023-03-23T13:29:00;11.10;99.90
23237;DHT22;11787;52.018;8.570;2023-03-23T13:31:31;11.30;99.90
23237;DHT22;11787;52.018;8.570;2023-03-23T13:34:12;11.30;99.90
23237;DHT22;11787;52.018;8.570;2023-03-23T13:37:10;11.40;99.90
23237;DHT22;11787;52.018;8.570;2023-03-23T13:39:37;11.40;99.90
23237;DHT22;11787;52.018;8.570;2023-03-23T13:50:10;11.50;99.90
23237;DHT22;11787;52.018;8.570;2023-03-23T14:05:48;11.60;99.90
23237;DHT22;11787;52.018;8.570;2023-03-23T14:08:43;11.60;99.90
23237;DHT22;11787;52.018;8.570;2023-03-23T14:16:40;11.80;99.90
23237;DHT22;11787;52.018;8.570;2023-03-23T14:19:22;11.80;99.90
23237;DHT22;11787;52.018;8.570;2023-03-23T14:21:55;11.90;99.90
23237;DHT22;11787;52.018;8.570;2023-03-23T14:24:32;11.90;99.90
23237;DHT22;11787;52.018;8.570;2023-03-23T14:27:21;11.90;99.90
23237;DHT22;11787;52.018;8.570;2023-03-23T14:29:58;11.90;99.90
23237;DHT22;11787;52.018;8.570;2023-03-23T14:32:27;11.80;99.90
23237;DHT22;11787;52.018;8.570;2023-03-23T14:34:53;11.80;99.90
23237;DHT22;11787;52.018;8.570;2023-03-23T14:37:20;11.80;99.90
23237;DHT22;11787;52.018;8.570;2023-03-23T14:39:48;11.80;99.90
23237;DHT22;11787;52.018;8.570;2023-03-23T14:42:16;11.80;99.90
23237;DHT22;11787;52.018;8.570;2023-03-23T14:44:45;11.80;99.90
23237;DHT22;11787;52.018;8.570;2023-03-23T14:49:56;11.80;99.90
23237;DHT22;11787;52.018;8.570;2023-03-23T14:52:26;11.90;99.90
23237;DHT22;11787;52.018;8.570;2023-03-23T14:54:52;11.90;99.90
23237;DHT22;11787;52.018;8.570;2023-03-23T14:59:49;12.10;99.90
23237;DHT22;11787;52.018;8.570;2023-03-23T15:02:34;12.00;99.90
23237;DHT22;11787;52.018;8.570;2023-03-23T15:05:13;12.10;99.90
23237;DHT22;11787;52.018;8.570;2023-03-23T15:07:43;12.20;99.90
23237;DHT22;11787;52.018;8.570;2023-03-23T15:10:16;12.30;99.90
23237;DHT22;11787;52.018;8.570;2023-03-23T15:12:44;12.30;99.90
23237;DHT22;11787;52.018;8.570;2023-03-23T15:15:24;12.20;99.90
23237;DHT22;11787;52.018;8.570;2023-03-23T15:17:51;12.30;99.90
23237;DHT22;11787;52.018;8.570;2023-03-23T15:20:27;12.20;99.90
23237;DHT22;11787;52.018;8.570;2023-03-23T15:22:54;12.20;99.90
23237;DHT22;11787;52.018;8.570;2023-03-23T15:32:59;12.30;99.90
23237;DHT22;11787;52.018;8.570;2023-03-23T15:35:26;12.20;99.90
23237;DHT22;11787;52.018;8.570;2023-03-23T15:38:03;12.30;99.90
23237;DHT22;11787;52.018;8.570;2023-03-23T15:40:34;12.30;99.90
23237;DHT22;11787;52.018;8.570;2023-03-23T15:43:22;12.40;99.90
23237;DHT22;11787;52.018;8.570;2023-03-23T15:48:18;12.50;99.90
23237;DHT22;11787;52.018;8.570;2023-03-23T15:50:46;12.40;99.90
23237;DHT22;11787;52.018;8.570;2023-03-23T15:53:22;12.40;99.90
23237;DHT22;11787;52.018;8.570;2023-03-23T15:55:49;12.40;99.90
23237;DHT22;11787;52.018;8.570;2023-03-23T15:58:15;12.40;99.90
23237;DHT22;11787;52.018;8.570;2023-03-23T16:00:42;12.40;99.90
23237;DHT22;11787;52.018;8.570;2023-03-23T16:03:12;12.50;99.90
23237;DHT22;11787;52.018;8.570;2023-03-23T16:05:39;12.40;99.90
23237;DHT22;11787;52.018;8.570;2023-03-23T16:08:05;12.50;99.90
23237;DHT22;11787;52.018;8.570;2023-03-23T16:10:30;12.50;99.90
23237;DHT22;11787;52.018;8.570;2023-03-23T16:12:56;12.50;99.90
23237;DHT22;11787;52.018;8.570;2023-03-23T16:15:22;12.50;99.90
23237;DHT22;11787;52.018;8.570;2023-03-23T16:17:47;12.60;99.90
23237;DHT22;11787;52.018;8.570;2023-03-23T16:20:16;12.50;99.90
23237;DHT22;11787;52.018;8.570;2023-03-23T16:22:41;12.50;99.90
23237;DHT22;11787;52.018;8.570;2023-03-23T16:25:08;12.50;99.90
23237;DHT22;11787;52.018;8.570;2023-03-23T16:27:34;12.40;99.90
23237;DHT22;11787;52.018;8.570;2023-03-23T16:30:00;12.40;99.90
23237;DHT22;11787;52.018;8.570;2023-03-23T16:32:28;12.40;99.90
23237;DHT22;11787;52.018;8.570;2023-03-23T16:34:53;12.40;99.90
23237;DHT22;11787;52.018;8.570;2023-03-23T16:37:19;12.30;99.90
23237;DHT22;11787;52.018;8.570;2023-03-23T16:39:46;12.30;99.90
23237;DHT22;11787;52.018;8.570;2023-03-23T16:42:11;12.30;99.90
23237;DHT22;11787;52.018;8.570;2023-03-23T16:44:37;12.30;99.90
23237;DHT22;11787;52.018;8.570;2023-03-23T16:47:03;12.30;99.90
23237;DHT22;11787;52.018;8.570;2023-03-23T16:49:28;12.40;99.90
23237;DHT22;11787;52.018;8.570;2023-03-23T16:51:59;12.40;99.90
23237;DHT22;11787;52.018;8.570;2023-03-23T16:54:24;12.30;99.90
23237;DHT22;11787;52.018;8.570;2023-03-23T16:56:50;12.30;99.90
23237;DHT22;11787;52.018;8.570;2023-03-23T16:59:16;12.30;99.90
23237;DHT22;11787;52.018;8.570;2023-03-23T17:01:41;12.20;99.90
23237;DHT22;11787;52.018;8.570;2023-03-23T17:04:07;12.20;99.90
23237;DHT22;11787;52.018;8.570;2023-03-23T17:06:33;12.20;99.90
23237;DHT22;11787;52.018;8.570;2023-03-23T17:08:58;12.20;99.90
23237;DHT22;11787;52.018;8.570;2023-03-23T17:11:24;12.20;99.90
23237;DHT22;11787;52.018;8.570;2023-03-23T17:13:49;12.10;99.90
23237;DHT22;11787;52.018;8.570;2023-03-23T17:16:15;12.10;99.90
23237;DHT22;11787;52.018;8.570;2023-03-23T17:18:41;12.10;99.90
23237;DHT22;11787;52.018;8.570;2023-03-23T17:21:06;12.10;99.90
23237;DHT22;11787;52.018;8.570;2023-03-23T17:23:32;12.10;99.90
23237;DHT22;11787;52.018;8.570;2023-03-23T17:25:58;12.00;99.90
23237;DHT22;11787;52.018;8.570;2023-03-23T17:28:23;12.00;99.90
23237;DHT22;11787;52.018;8.570;2023-03-23T17:30:51;12.00;99.90
23237;DHT22;11787;52.018;8.570;2023-03-23T17:33:16;11.90;99.90
23237;DHT22;11787;52.018;8.570;2023-03-23T17:35:45;11.90;99.90
23237;DHT22;11787;52.018;8.570;2023-03-23T17:38:10;11.90;99.90
23237;DHT22;11787;52.018;8.570;2023-03-23T17:40:36;11.90;99.90
23237;DHT22;11787;52.018;8.570;2023-03-23T17:43:02;12.00;99.90
23237;DHT22;11787;52.018;8.570;2023-03-23T17:45:27;11.90;99.90
23237;DHT22;11787;52.018;8.570;2023-03-23T17:47:53;11.90;99.90
23237;DHT22;11787;52.018;8.570;2023-03-23T17:50:18;11.90;99.90
23237;DHT22;11787;52.018;8.570;2023-03-23T17:52:44;11.90;99.90
23237;DHT22;11787;52.018;8.570;2023-03-23T17:55:10;12.00;99.90
23237;DHT22;11787;52.018;8.570;2023-03-23T17:57:36;12.00;99.90
23237;DHT22;11787;52.018;8.570;2023-03-23T18:00:03;12.00;99.90